sensor_id;sensor_type;location;lat;lon;timestamp;P1;durP1;ratioP1;P2;durP2;ratioP2
17886;SDS011;9069;52.044;7.472;2023-08-31T00:01:06;4.68;;;2.45;;
17886;SDS011;9069;52.044;7.472;2023-08-31T00:03:32;3.55;;;2.60;;
17886;SDS011;9069;52.044;7.472;2023-08-31T00:06:02;7.07;;;2.40;;
17886;SDS011;9069;52.044;7.472;2023-08-31T00:08:30;5.97;;;2.33;;
17886;SDS011;9069;52.044;7.472;2023-08-31T00:10:57;2.97;;;1.90;;
17886;SDS011;9069;52.044;7.472;2023-08-31T00:13:27;7.00;;;2.17;;
17886;SDS011;9069;52.044;7.472;2023-08-31T00:15:56;4.88;;;2.45;;
17886;SDS011;9069;52.044;7.472;2023-08-31T00:18:24;2.63;;;2.42;;
17886;SDS011;9069;52.044;7.472;2023-08-31T00:20:51;3.80;;;2.55;;
17886;SDS011;9069;52.044;7.472;2023-08-31T00:23:19;9.00;;;2.88;;
17886;SDS011;9069;52.044;7.472;2023-08-31T00:25:46;4.63;;;2.60;;
17886;SDS011;9069;52.044;7.472;2023-08-31T00:28:18;2.47;;;2.28;;
17886;SDS011;9069;52.044;7.472;2023-08-31T00:30:46;5.30;;;2.40;;
17886;SDS011;9069;52.044;7.472;2023-08-31T00:33:13;2.90;;;2.40;;
17886;SDS011;9069;52.044;7.472;2023-08-31T00:35:41;3.53;;;1.88;;
17886;SDS011;9069;52.044;7.472;2023-08-31T00:38:10;2.47;;;1.90;;
17886;SDS011;9069;52.044;7.472;2023-08-31T00:40:41;4.47;;;2.22;;
17886;SDS011;9069;52.044;7.472;2023-08-31T00:43:11;3.08;;;2.13;;
17886;SDS011;9069;52.044;7.472;2023-08-31T00:45:41;3.10;;;1.90;;
17886;SDS011;9069;52.044;7.472;2023-08-31T00:48:09;3.92;;;1.98;;
17886;SDS011;9069;52.044;7.472;2023-08-31T00:50:38;3.53;;;2.15;;
17886;SDS011;9069;52.044;7.472;2023-08-31T00:53:05;3.67;;;1.85;;
17886;SDS011;9069;52.044;7.472;2023-08-31T00:55:32;4.68;;;2.08;;
17886;SDS011;9069;52.044;7.472;2023-08-31T00:57:59;3.55;;;2.05;;
17886;SDS011;9069;52.044;7.472;2023-08-31T01:00:44;4.47;;;1.90;;
17886;SDS011;9069;52.044;7.472;2023-08-31T01:03:40;10.82;;;2.20;;
17886;SDS011;9069;52.044;7.472;2023-08-31T01:06:40;3.85;;;2.08;;
17886;SDS011;9069;52.044;7.472;2023-08-31T01:09:12;2.08;;;1.70;;
17886;SDS011;9069;52.044;7.472;2023-08-31T01:14:34;2.80;;;1.90;;
17886;SDS011;9069;52.044;7.472;2023-08-31T01:17:08;4.03;;;2.15;;
17886;SDS011;9069;52.044;7.472;2023-08-31T01:19:40;4.32;;;2.00;;
17886;SDS011;9069;52.044;7.472;2023-08-31T01:22:16;3.08;;;1.92;;
17886;SDS011;9069;52.044;7.472;2023-08-31T01:24:47;6.38;;;2.33;;
17886;SDS011;9069;52.044;7.472;2023-08-31T01:27:14;2.45;;;1.67;;
17886;SDS011;9069;52.044;7.472;2023-08-31T01:29:43;2.55;;;1.52;;
17886;SDS011;9069;52.044;7.472;2023-08-31T01:32:10;3.40;;;1.75;;
17886;SDS011;9069;52.044;7.472;2023-08-31T01:34:37;3.53;;;1.77;;
17886;SDS011;9069;52.044;7.472;2023-08-31T01:37:17;3.55;;;1.60;;
17886;SDS011;9069;52.044;7.472;2023-08-31T01:39:56;5.18;;;1.88;;
17886;SDS011;9069;52.044;7.472;2023-08-31T01:42:28;2.38;;;1.50;;
17886;SDS011;9069;52.044;7.472;2023-08-31T01:44:56;1.80;;;1.65;;
17886;SDS011;9069;52.044;7.472;2023-08-31T01:47:24;2.17;;;1.85;;
17886;SDS011;9069;52.044;7.472;2023-08-31T01:49:52;2.50;;;1.70;;
17886;SDS011;9069;52.044;7.472;2023-08-31T01:52:19;4.95;;;1.92;;
17886;SDS011;9069;52.044;7.472;2023-08-31T01:54:46;2.00;;;1.60;;
17886;SDS011;9069;52.044;7.472;2023-08-31T01:57:12;4.75;;;1.70;;
17886;SDS011;9069;52.044;7.472;2023-08-31T01:59:59;2.35;;;1.92;;
17886;SDS011;9069;52.044;7.472;2023-08-31T02:02:39;2.80;;;1.75;;
17886;SDS011;9069;52.044;7.472;2023-08-31T02:05:06;5.20;;;2.30;;
17886;SDS011;9069;52.044;7.472;2023-08-31T02:07:33;1.80;;;1.40;;
17886;SDS011;9069;52.044;7.472;2023-08-31T02:10:01;2.50;;;1.80;;
17886;SDS011;9069;52.044;7.472;2023-08-31T02:12:29;2.97;;;1.20;;
17886;SDS011;9069;52.044;7.472;2023-08-31T02:14:55;1.48;;;1.20;;
17886;SDS011;9069;52.044;7.472;2023-08-31T02:17:22;3.58;;;1.98;;
17886;SDS011;9069;52.044;7.472;2023-08-31T02:19:49;2.35;;;1.30;;
17886;SDS011;9069;52.044;7.472;2023-08-31T02:22:16;3.20;;;1.60;;
17886;SDS011;9069;52.044;7.472;2023-08-31T02:24:43;3.00;;;1.73;;
17886;SDS011;9069;52.044;7.472;2023-08-31T02:27:10;2.13;;;1.58;;
17886;SDS011;9069;52.044;7.472;2023-08-31T02:29:37;2.10;;;1.55;;
17886;SDS011;9069;52.044;7.472;2023-08-31T02:32:04;2.05;;;1.58;;
17886;SDS011;9069;52.044;7.472;2023-08-31T02:34:32;1.90;;;1.70;;
17886;SDS011;9069;52.044;7.472;2023-08-31T02:36:59;2.60;;;1.83;;
17886;SDS011;9069;52.044;7.472;2023-08-31T02:39:28;3.83;;;2.03;;
17886;SDS011;9069;52.044;7.472;2023-08-31T02:41:55;3.63;;;1.75;;
17886;SDS011;9069;52.044;7.472;2023-08-31T02:44:21;2.03;;;1.63;;
17886;SDS011;9069;52.044;7.472;2023-08-31T02:46:48;4.05;;;1.80;;
17886;SDS011;9069;52.044;7.472;2023-08-31T02:49:15;2.67;;;1.60;;
17886;SDS011;9069;52.044;7.472;2023-08-31T02:51:42;2.92;;;1.88;;
17886;SDS011;9069;52.044;7.472;2023-08-31T02:54:09;3.90;;;2.08;;
17886;SDS011;9069;52.044;7.472;2023-08-31T02:56:35;3.33;;;2.20;;
17886;SDS011;9069;52.044;7.472;2023-08-31T02:59:03;4.18;;;2.00;;
17886;SDS011;9069;52.044;7.472;2023-08-31T03:01:30;3.00;;;2.35;;
17886;SDS011;9069;52.044;7.472;2023-08-31T03:03:56;2.25;;;1.75;;
17886;SDS011;9069;52.044;7.472;2023-08-31T03:06:23;3.22;;;2.45;;
17886;SDS011;9069;52.044;7.472;2023-08-31T03:08:50;5.15;;;2.70;;
17886;SDS011;9069;52.044;7.472;2023-08-31T03:11:17;3.97;;;2.15;;
17886;SDS011;9069;52.044;7.472;2023-08-31T03:13:44;4.60;;;2.20;;
17886;SDS011;9069;52.044;7.472;2023-08-31T03:16:11;2.90;;;2.25;;
17886;SDS011;9069;52.044;7.472;2023-08-31T03:18:38;3.70;;;2.35;;
17886;SDS011;9069;52.044;7.472;2023-08-31T03:21:05;2.42;;;2.05;;
17886;SDS011;9069;52.044;7.472;2023-08-31T03:23:32;4.60;;;2.38;;
17886;SDS011;9069;52.044;7.472;2023-08-31T03:26:06;2.78;;;2.10;;
17886;SDS011;9069;52.044;7.472;2023-08-31T03:28:36;4.60;;;2.35;;
17886;SDS011;9069;52.044;7.472;2023-08-31T03:31:04;4.78;;;2.80;;
17886;SDS011;9069;52.044;7.472;2023-08-31T03:33:31;3.08;;;2.42;;
17886;SDS011;9069;52.044;7.472;2023-08-31T03:36:02;4.47;;;2.72;;
17886;SDS011;9069;52.044;7.472;2023-08-31T03:38:32;5.70;;;3.30;;
17886;SDS011;9069;52.044;7.472;2023-08-31T03:41:04;5.88;;;3.38;;
17886;SDS011;9069;52.044;7.472;2023-08-31T03:43:31;5.13;;;3.25;;
17886;SDS011;9069;52.044;7.472;2023-08-31T03:45:58;4.75;;;2.95;;
17886;SDS011;9069;52.044;7.472;2023-08-31T03:48:26;4.18;;;3.15;;
17886;SDS011;9069;52.044;7.472;2023-08-31T03:50:53;6.88;;;3.33;;
17886;SDS011;9069;52.044;7.472;2023-08-31T03:53:21;4.13;;;3.13;;
17886;SDS011;9069;52.044;7.472;2023-08-31T03:55:51;3.70;;;3.10;;
17886;SDS011;9069;52.044;7.472;2023-08-31T03:58:19;4.07;;;3.28;;
17886;SDS011;9069;52.044;7.472;2023-08-31T04:00:50;3.83;;;3.08;;
17886;SDS011;9069;52.044;7.472;2023-08-31T04:03:18;6.03;;;3.38;;
17886;SDS011;9069;52.044;7.472;2023-08-31T04:05:46;7.70;;;3.88;;
17886;SDS011;9069;52.044;7.472;2023-08-31T04:08:13;5.72;;;3.70;;
17886;SDS011;9069;52.044;7.472;2023-08-31T04:10:40;4.53;;;3.30;;
17886;SDS011;9069;52.044;7.472;2023-08-31T04:13:08;5.05;;;3.70;;
17886;SDS011;9069;52.044;7.472;2023-08-31T04:15:36;6.53;;;3.58;;
17886;SDS011;9069;52.044;7.472;2023-08-31T04:18:03;5.93;;;4.18;;
17886;SDS011;9069;52.044;7.472;2023-08-31T04:20:30;7.18;;;4.40;;
17886;SDS011;9069;52.044;7.472;2023-08-31T04:22:59;7.78;;;3.80;;
17886;SDS011;9069;52.044;7.472;2023-08-31T04:25:28;7.35;;;3.70;;
17886;SDS011;9069;52.044;7.472;2023-08-31T04:27:57;6.97;;;4.72;;
17886;SDS011;9069;52.044;7.472;2023-08-31T04:30:24;9.25;;;5.07;;
17886;SDS011;9069;52.044;7.472;2023-08-31T04:32:51;5.25;;;3.95;;
17886;SDS011;9069;52.044;7.472;2023-08-31T04:35:17;6.63;;;4.07;;
17886;SDS011;9069;52.044;7.472;2023-08-31T04:37:44;7.07;;;3.67;;
17886;SDS011;9069;52.044;7.472;2023-08-31T04:40:13;5.70;;;3.72;;
17886;SDS011;9069;52.044;7.472;2023-08-31T04:42:39;5.38;;;4.43;;
17886;SDS011;9069;52.044;7.472;2023-08-31T04:45:06;4.63;;;4.18;;
17886;SDS011;9069;52.044;7.472;2023-08-31T04:47:33;8.60;;;4.32;;
17886;SDS011;9069;52.044;7.472;2023-08-31T04:50:02;8.13;;;4.65;;
17886;SDS011;9069;52.044;7.472;2023-08-31T04:52:29;7.22;;;4.38;;
17886;SDS011;9069;52.044;7.472;2023-08-31T04:54:56;6.38;;;4.60;;
17886;SDS011;9069;52.044;7.472;2023-08-31T04:57:23;7.70;;;5.05;;
17886;SDS011;9069;52.044;7.472;2023-08-31T04:59:50;7.97;;;4.90;;
17886;SDS011;9069;52.044;7.472;2023-08-31T05:02:17;8.25;;;5.70;;
17886;SDS011;9069;52.044;7.472;2023-08-31T05:04:44;7.03;;;4.80;;
17886;SDS011;9069;52.044;7.472;2023-08-31T05:07:11;7.65;;;5.35;;
17886;SDS011;9069;52.044;7.472;2023-08-31T05:09:37;9.70;;;5.47;;
17886;SDS011;9069;52.044;7.472;2023-08-31T05:12:04;6.00;;;4.97;;
17886;SDS011;9069;52.044;7.472;2023-08-31T05:14:32;6.35;;;4.80;;
17886;SDS011;9069;52.044;7.472;2023-08-31T05:17:01;12.38;;;5.70;;
17886;SDS011;9069;52.044;7.472;2023-08-31T05:19:28;7.38;;;5.47;;
17886;SDS011;9069;52.044;7.472;2023-08-31T05:21:55;7.50;;;5.57;;
17886;SDS011;9069;52.044;7.472;2023-08-31T05:24:22;7.68;;;5.95;;
17886;SDS011;9069;52.044;7.472;2023-08-31T05:26:49;9.45;;;6.22;;
17886;SDS011;9069;52.044;7.472;2023-08-31T05:29:16;8.35;;;5.75;;
17886;SDS011;9069;52.044;7.472;2023-08-31T05:31:43;6.45;;;5.22;;
17886;SDS011;9069;52.044;7.472;2023-08-31T05:34:10;8.43;;;5.68;;
17886;SDS011;9069;52.044;7.472;2023-08-31T05:36:36;7.47;;;5.85;;
17886;SDS011;9069;52.044;7.472;2023-08-31T05:39:03;9.07;;;6.45;;
17886;SDS011;9069;52.044;7.472;2023-08-31T05:41:30;8.63;;;6.10;;
17886;SDS011;9069;52.044;7.472;2023-08-31T05:43:57;10.70;;;6.22;;
17886;SDS011;9069;52.044;7.472;2023-08-31T05:46:23;8.57;;;6.43;;
17886;SDS011;9069;52.044;7.472;2023-08-31T05:48:50;8.93;;;6.43;;
17886;SDS011;9069;52.044;7.472;2023-08-31T05:51:18;7.40;;;6.05;;
17886;SDS011;9069;52.044;7.472;2023-08-31T05:53:45;7.60;;;6.00;;
17886;SDS011;9069;52.044;7.472;2023-08-31T05:56:12;7.80;;;6.28;;
17886;SDS011;9069;52.044;7.472;2023-08-31T05:58:38;8.80;;;5.80;;
17886;SDS011;9069;52.044;7.472;2023-08-31T06:01:05;8.90;;;6.75;;
17886;SDS011;9069;52.044;7.472;2023-08-31T06:03:33;7.60;;;6.25;;
17886;SDS011;9069;52.044;7.472;2023-08-31T06:06:00;8.85;;;7.00;;
17886;SDS011;9069;52.044;7.472;2023-08-31T06:08:27;10.57;;;6.75;;
17886;SDS011;9069;52.044;7.472;2023-08-31T06:10:55;9.52;;;7.20;;
17886;SDS011;9069;52.044;7.472;2023-08-31T06:13:22;8.10;;;6.50;;
17886;SDS011;9069;52.044;7.472;2023-08-31T06:15:49;8.48;;;6.13;;
17886;SDS011;9069;52.044;7.472;2023-08-31T06:18:16;8.68;;;6.30;;
17886;SDS011;9069;52.044;7.472;2023-08-31T06:20:43;10.18;;;6.70;;
17886;SDS011;9069;52.044;7.472;2023-08-31T06:23:09;8.15;;;6.18;;
17886;SDS011;9069;52.044;7.472;2023-08-31T06:25:37;8.40;;;6.97;;
17886;SDS011;9069;52.044;7.472;2023-08-31T06:28:04;8.30;;;6.82;;
17886;SDS011;9069;52.044;7.472;2023-08-31T06:30:35;8.15;;;6.80;;
17886;SDS011;9069;52.044;7.472;2023-08-31T06:33:01;8.68;;;6.65;;
17886;SDS011;9069;52.044;7.472;2023-08-31T06:35:29;8.30;;;6.50;;
17886;SDS011;9069;52.044;7.472;2023-08-31T06:37:55;7.82;;;5.97;;
17886;SDS011;9069;52.044;7.472;2023-08-31T06:40:23;9.30;;;7.55;;
17886;SDS011;9069;52.044;7.472;2023-08-31T06:42:50;9.00;;;6.55;;
17886;SDS011;9069;52.044;7.472;2023-08-31T06:45:17;8.55;;;6.93;;
17886;SDS011;9069;52.044;7.472;2023-08-31T06:47:44;8.38;;;6.75;;
17886;SDS011;9069;52.044;7.472;2023-08-31T06:50:11;8.77;;;6.55;;
17886;SDS011;9069;52.044;7.472;2023-08-31T06:52:38;9.60;;;6.65;;
17886;SDS011;9069;52.044;7.472;2023-08-31T06:55:04;11.25;;;7.93;;
17886;SDS011;9069;52.044;7.472;2023-08-31T06:57:32;9.63;;;6.80;;
17886;SDS011;9069;52.044;7.472;2023-08-31T06:59:59;10.57;;;6.60;;
17886;SDS011;9069;52.044;7.472;2023-08-31T07:02:27;10.20;;;6.75;;
17886;SDS011;9069;52.044;7.472;2023-08-31T07:04:54;9.27;;;6.95;;
17886;SDS011;9069;52.044;7.472;2023-08-31T07:07:20;10.27;;;6.93;;
17886;SDS011;9069;52.044;7.472;2023-08-31T07:09:47;9.93;;;7.35;;
17886;SDS011;9069;52.044;7.472;2023-08-31T07:12:17;9.40;;;7.03;;
17886;SDS011;9069;52.044;7.472;2023-08-31T07:14:44;9.60;;;7.45;;
17886;SDS011;9069;52.044;7.472;2023-08-31T07:17:11;10.70;;;6.63;;
17886;SDS011;9069;52.044;7.472;2023-08-31T07:19:37;10.07;;;7.70;;
17886;SDS011;9069;52.044;7.472;2023-08-31T07:22:04;10.32;;;7.45;;
17886;SDS011;9069;52.044;7.472;2023-08-31T07:24:32;10.40;;;7.20;;
17886;SDS011;9069;52.044;7.472;2023-08-31T07:27:04;8.55;;;7.07;;
17886;SDS011;9069;52.044;7.472;2023-08-31T07:29:31;8.43;;;6.95;;
17886;SDS011;9069;52.044;7.472;2023-08-31T07:31:57;10.25;;;6.95;;
17886;SDS011;9069;52.044;7.472;2023-08-31T07:34:24;7.47;;;6.13;;
17886;SDS011;9069;52.044;7.472;2023-08-31T07:36:51;11.45;;;6.55;;
17886;SDS011;9069;52.044;7.472;2023-08-31T07:39:18;8.07;;;5.75;;
17886;SDS011;9069;52.044;7.472;2023-08-31T07:41:44;8.23;;;5.90;;
17886;SDS011;9069;52.044;7.472;2023-08-31T07:44:11;9.45;;;5.88;;
17886;SDS011;9069;52.044;7.472;2023-08-31T07:46:38;6.68;;;5.65;;
17886;SDS011;9069;52.044;7.472;2023-08-31T07:49:05;7.45;;;5.72;;
17886;SDS011;9069;52.044;7.472;2023-08-31T07:51:33;7.20;;;5.57;;
17886;SDS011;9069;52.044;7.472;2023-08-31T07:53:59;7.63;;;4.90;;
17886;SDS011;9069;52.044;7.472;2023-08-31T07:56:29;5.63;;;4.85;;
17886;SDS011;9069;52.044;7.472;2023-08-31T07:58:56;8.00;;;5.18;;
17886;SDS011;9069;52.044;7.472;2023-08-31T08:01:23;6.50;;;5.25;;
17886;SDS011;9069;52.044;7.472;2023-08-31T08:03:49;9.98;;;5.28;;
17886;SDS011;9069;52.044;7.472;2023-08-31T08:06:16;5.07;;;4.38;;
17886;SDS011;9069;52.044;7.472;2023-08-31T08:08:43;7.68;;;4.80;;
17886;SDS011;9069;52.044;7.472;2023-08-31T08:11:10;6.05;;;5.40;;
17886;SDS011;9069;52.044;7.472;2023-08-31T08:13:37;6.30;;;4.93;;
17886;SDS011;9069;52.044;7.472;2023-08-31T08:16:04;5.95;;;4.30;;
17886;SDS011;9069;52.044;7.472;2023-08-31T08:18:31;7.35;;;4.13;;
17886;SDS011;9069;52.044;7.472;2023-08-31T08:20:58;5.05;;;4.32;;
17886;SDS011;9069;52.044;7.472;2023-08-31T08:23:26;4.28;;;3.80;;
17886;SDS011;9069;52.044;7.472;2023-08-31T08:25:53;4.10;;;3.70;;
17886;SDS011;9069;52.044;7.472;2023-08-31T08:28:19;4.20;;;3.58;;
17886;SDS011;9069;52.044;7.472;2023-08-31T08:30:46;6.20;;;3.47;;
17886;SDS011;9069;52.044;7.472;2023-08-31T08:33:13;4.63;;;3.17;;
17886;SDS011;9069;52.044;7.472;2023-08-31T08:35:40;4.25;;;2.83;;
17886;SDS011;9069;52.044;7.472;2023-08-31T08:38:07;5.70;;;3.00;;
17886;SDS011;9069;52.044;7.472;2023-08-31T08:40:34;4.60;;;3.08;;
17886;SDS011;9069;52.044;7.472;2023-08-31T08:43:04;4.35;;;2.90;;
17886;SDS011;9069;52.044;7.472;2023-08-31T08:45:37;3.83;;;2.33;;
17886;SDS011;9069;52.044;7.472;2023-08-31T08:48:08;6.68;;;2.63;;
17886;SDS011;9069;52.044;7.472;2023-08-31T08:50:35;4.63;;;2.47;;
17886;SDS011;9069;52.044;7.472;2023-08-31T08:53:03;4.13;;;2.67;;
17886;SDS011;9069;52.044;7.472;2023-08-31T08:55:31;6.38;;;2.40;;
17886;SDS011;9069;52.044;7.472;2023-08-31T08:57:59;1.70;;;1.60;;
17886;SDS011;9069;52.044;7.472;2023-08-31T09:00:27;4.95;;;2.42;;
17886;SDS011;9069;52.044;7.472;2023-08-31T09:02:54;5.47;;;2.10;;
17886;SDS011;9069;52.044;7.472;2023-08-31T09:05:22;5.95;;;2.60;;
17886;SDS011;9069;52.044;7.472;2023-08-31T09:08:08;4.15;;;2.58;;
17886;SDS011;9069;52.044;7.472;2023-08-31T09:10:40;2.97;;;1.83;;
17886;SDS011;9069;52.044;7.472;2023-08-31T09:13:11;2.72;;;2.08;;
17886;SDS011;9069;52.044;7.472;2023-08-31T09:15:46;4.97;;;2.10;;
17886;SDS011;9069;52.044;7.472;2023-08-31T09:18:24;2.92;;;1.88;;
17886;SDS011;9069;52.044;7.472;2023-08-31T09:20:56;3.38;;;1.77;;
17886;SDS011;9069;52.044;7.472;2023-08-31T09:23:24;2.38;;;1.60;;
17886;SDS011;9069;52.044;7.472;2023-08-31T09:25:52;3.30;;;1.95;;
17886;SDS011;9069;52.044;7.472;2023-08-31T09:28:21;3.08;;;1.92;;
17886;SDS011;9069;52.044;7.472;2023-08-31T09:31:05;2.17;;;1.42;;
17886;SDS011;9069;52.044;7.472;2023-08-31T09:33:36;3.47;;;1.42;;
17886;SDS011;9069;52.044;7.472;2023-08-31T09:36:05;3.13;;;1.80;;
17886;SDS011;9069;52.044;7.472;2023-08-31T09:38:40;2.42;;;1.50;;
17886;SDS011;9069;52.044;7.472;2023-08-31T09:41:08;3.95;;;1.60;;
17886;SDS011;9069;52.044;7.472;2023-08-31T09:43:35;3.08;;;1.52;;
17886;SDS011;9069;52.044;7.472;2023-08-31T09:46:02;3.83;;;2.17;;
17886;SDS011;9069;52.044;7.472;2023-08-31T09:48:30;3.00;;;1.80;;
17886;SDS011;9069;52.044;7.472;2023-08-31T09:50:58;2.80;;;1.38;;
17886;SDS011;9069;52.044;7.472;2023-08-31T09:53:29;4.97;;;2.15;;
17886;SDS011;9069;52.044;7.472;2023-08-31T09:55:57;3.80;;;1.58;;
17886;SDS011;9069;52.044;7.472;2023-08-31T09:58:26;2.55;;;1.63;;
17886;SDS011;9069;52.044;7.472;2023-08-31T10:00:57;3.35;;;1.80;;
17886;SDS011;9069;52.044;7.472;2023-08-31T10:03:25;2.47;;;1.65;;
17886;SDS011;9069;52.044;7.472;2023-08-31T10:05:53;2.97;;;1.45;;
17886;SDS011;9069;52.044;7.472;2023-08-31T10:08:21;2.40;;;1.38;;
17886;SDS011;9069;52.044;7.472;2023-08-31T10:10:48;2.60;;;1.30;;
17886;SDS011;9069;52.044;7.472;2023-08-31T10:13:15;2.30;;;1.70;;
17886;SDS011;9069;52.044;7.472;2023-08-31T10:15:43;2.65;;;1.70;;
17886;SDS011;9069;52.044;7.472;2023-08-31T10:18:11;2.72;;;1.60;;
17886;SDS011;9069;52.044;7.472;2023-08-31T10:20:39;3.28;;;1.30;;
17886;SDS011;9069;52.044;7.472;2023-08-31T10:23:09;2.38;;;1.48;;
17886;SDS011;9069;52.044;7.472;2023-08-31T10:28:22;3.92;;;1.45;;
17886;SDS011;9069;52.044;7.472;2023-08-31T10:31:08;2.67;;;1.10;;
17886;SDS011;9069;52.044;7.472;2023-08-31T10:33:42;1.52;;;0.90;;
17886;SDS011;9069;52.044;7.472;2023-08-31T10:36:19;2.15;;;1.20;;
17886;SDS011;9069;52.044;7.472;2023-08-31T10:39:32;1.33;;;0.68;;
17886;SDS011;9069;52.044;7.472;2023-08-31T10:41:44;3.08;;;1.10;;
17886;SDS011;9069;52.044;7.472;2023-08-31T10:44:22;2.33;;;0.73;;
17886;SDS011;9069;52.044;7.472;2023-08-31T10:46:53;3.15;;;0.70;;
17886;SDS011;9069;52.044;7.472;2023-08-31T10:49:21;2.72;;;0.70;;
17886;SDS011;9069;52.044;7.472;2023-08-31T10:51:50;2.90;;;1.00;;
17886;SDS011;9069;52.044;7.472;2023-08-31T10:54:20;3.53;;;0.85;;
17886;SDS011;9069;52.044;7.472;2023-08-31T10:59:21;2.10;;;0.88;;
17886;SDS011;9069;52.044;7.472;2023-08-31T11:04:27;3.88;;;0.88;;
17886;SDS011;9069;52.044;7.472;2023-08-31T11:09:41;2.45;;;1.00;;
17886;SDS011;9069;52.044;7.472;2023-08-31T11:12:09;4.38;;;0.98;;
17886;SDS011;9069;52.044;7.472;2023-08-31T11:14:36;4.20;;;1.20;;
17886;SDS011;9069;52.044;7.472;2023-08-31T11:17:04;3.08;;;0.82;;
17886;SDS011;9069;52.044;7.472;2023-08-31T11:19:33;3.40;;;1.10;;
17886;SDS011;9069;52.044;7.472;2023-08-31T11:22:02;7.75;;;0.90;;
17886;SDS011;9069;52.044;7.472;2023-08-31T11:24:33;3.00;;;0.80;;
17886;SDS011;9069;52.044;7.472;2023-08-31T11:27:01;3.58;;;1.20;;
17886;SDS011;9069;52.044;7.472;2023-08-31T11:29:30;2.15;;;0.85;;
17886;SDS011;9069;52.044;7.472;2023-08-31T11:31:56;4.63;;;0.70;;
17886;SDS011;9069;52.044;7.472;2023-08-31T11:34:26;3.25;;;0.80;;
17886;SDS011;9069;52.044;7.472;2023-08-31T11:36:53;1.13;;;0.47;;
17886;SDS011;9069;52.044;7.472;2023-08-31T11:39:20;1.13;;;0.70;;
17886;SDS011;9069;52.044;7.472;2023-08-31T11:41:47;4.68;;;0.95;;
17886;SDS011;9069;52.044;7.472;2023-08-31T11:44:14;1.55;;;0.80;;
17886;SDS011;9069;52.044;7.472;2023-08-31T11:46:43;1.05;;;0.60;;
17886;SDS011;9069;52.044;7.472;2023-08-31T11:49:14;2.70;;;0.45;;
17886;SDS011;9069;52.044;7.472;2023-08-31T11:51:42;2.15;;;0.68;;
17886;SDS011;9069;52.044;7.472;2023-08-31T11:54:10;1.88;;;0.70;;
17886;SDS011;9069;52.044;7.472;2023-08-31T11:59:11;0.68;;;0.40;;
17886;SDS011;9069;52.044;7.472;2023-08-31T12:01:42;2.92;;;0.80;;
17886;SDS011;9069;52.044;7.472;2023-08-31T12:04:10;2.55;;;0.93;;
17886;SDS011;9069;52.044;7.472;2023-08-31T12:06:38;3.55;;;0.90;;
17886;SDS011;9069;52.044;7.472;2023-08-31T12:09:06;3.90;;;1.30;;
17886;SDS011;9069;52.044;7.472;2023-08-31T12:11:38;2.03;;;0.90;;
17886;SDS011;9069;52.044;7.472;2023-08-31T12:14:17;1.30;;;1.00;;
17886;SDS011;9069;52.044;7.472;2023-08-31T12:16:49;1.38;;;0.77;;
17886;SDS011;9069;52.044;7.472;2023-08-31T12:19:16;4.35;;;1.05;;
17886;SDS011;9069;52.044;7.472;2023-08-31T12:21:44;3.28;;;1.08;;
17886;SDS011;9069;52.044;7.472;2023-08-31T12:24:12;2.45;;;0.98;;
17886;SDS011;9069;52.044;7.472;2023-08-31T12:26:40;1.25;;;0.60;;
17886;SDS011;9069;52.044;7.472;2023-08-31T12:29:06;1.75;;;0.50;;
17886;SDS011;9069;52.044;7.472;2023-08-31T12:31:33;1.27;;;0.52;;
17886;SDS011;9069;52.044;7.472;2023-08-31T12:34:01;1.88;;;0.95;;
17886;SDS011;9069;52.044;7.472;2023-08-31T12:36:32;0.55;;;0.40;;
17886;SDS011;9069;52.044;7.472;2023-08-31T12:38:59;2.08;;;0.65;;
17886;SDS011;9069;52.044;7.472;2023-08-31T12:41:32;0.68;;;0.43;;
17886;SDS011;9069;52.044;7.472;2023-08-31T12:43:59;1.85;;;0.68;;
17886;SDS011;9069;52.044;7.472;2023-08-31T12:46:26;3.38;;;0.70;;
17886;SDS011;9069;52.044;7.472;2023-08-31T12:48:53;0.90;;;0.70;;
17886;SDS011;9069;52.044;7.472;2023-08-31T12:51:20;1.58;;;0.70;;
17886;SDS011;9069;52.044;7.472;2023-08-31T12:53:46;1.60;;;0.75;;
17886;SDS011;9069;52.044;7.472;2023-08-31T12:56:14;1.95;;;1.27;;
17886;SDS011;9069;52.044;7.472;2023-08-31T12:58:50;3.47;;;1.27;;
17886;SDS011;9069;52.044;7.472;2023-08-31T13:01:19;2.17;;;1.00;;
17886;SDS011;9069;52.044;7.472;2023-08-31T13:03:47;3.00;;;1.63;;
17886;SDS011;9069;52.044;7.472;2023-08-31T13:06:14;2.08;;;1.30;;
17886;SDS011;9069;52.044;7.472;2023-08-31T13:08:42;1.85;;;1.30;;
17886;SDS011;9069;52.044;7.472;2023-08-31T13:11:13;1.60;;;1.27;;
17886;SDS011;9069;52.044;7.472;2023-08-31T13:13:40;2.47;;;1.50;;
17886;SDS011;9069;52.044;7.472;2023-08-31T13:16:07;1.98;;;1.40;;
17886;SDS011;9069;52.044;7.472;2023-08-31T13:18:35;3.13;;;1.60;;
17886;SDS011;9069;52.044;7.472;2023-08-31T13:21:01;2.13;;;1.45;;
17886;SDS011;9069;52.044;7.472;2023-08-31T13:23:29;2.50;;;1.40;;
17886;SDS011;9069;52.044;7.472;2023-08-31T13:25:56;1.88;;;1.48;;
17886;SDS011;9069;52.044;7.472;2023-08-31T13:28:22;3.30;;;1.48;;
17886;SDS011;9069;52.044;7.472;2023-08-31T13:30:50;2.85;;;1.63;;
17886;SDS011;9069;52.044;7.472;2023-08-31T13:33:22;4.78;;;2.15;;
17886;SDS011;9069;52.044;7.472;2023-08-31T13:35:49;3.42;;;1.88;;
17886;SDS011;9069;52.044;7.472;2023-08-31T13:38:16;4.53;;;2.63;;
17886;SDS011;9069;52.044;7.472;2023-08-31T13:40:43;2.55;;;1.92;;
17886;SDS011;9069;52.044;7.472;2023-08-31T13:43:10;5.05;;;2.55;;
17886;SDS011;9069;52.044;7.472;2023-08-31T13:45:36;2.60;;;1.85;;
17886;SDS011;9069;52.044;7.472;2023-08-31T13:48:03;5.20;;;2.38;;
17886;SDS011;9069;52.044;7.472;2023-08-31T13:50:30;3.65;;;2.53;;
17886;SDS011;9069;52.044;7.472;2023-08-31T13:52:57;4.13;;;2.50;;
17886;SDS011;9069;52.044;7.472;2023-08-31T13:55:24;3.83;;;2.35;;
17886;SDS011;9069;52.044;7.472;2023-08-31T13:57:50;3.13;;;2.47;;
17886;SDS011;9069;52.044;7.472;2023-08-31T14:00:17;4.35;;;2.60;;
17886;SDS011;9069;52.044;7.472;2023-08-31T14:02:44;5.45;;;2.45;;
17886;SDS011;9069;52.044;7.472;2023-08-31T14:05:11;3.72;;;2.65;;
17886;SDS011;9069;52.044;7.472;2023-08-31T14:07:38;1.98;;;1.67;;
17886;SDS011;9069;52.044;7.472;2023-08-31T14:10:09;3.45;;;2.45;;
17886;SDS011;9069;52.044;7.472;2023-08-31T14:12:36;3.53;;;2.50;;
17886;SDS011;9069;52.044;7.472;2023-08-31T14:15:04;5.65;;;2.63;;
17886;SDS011;9069;52.044;7.472;2023-08-31T14:17:31;4.57;;;3.35;;
17886;SDS011;9069;52.044;7.472;2023-08-31T14:19:58;3.95;;;2.60;;
17886;SDS011;9069;52.044;7.472;2023-08-31T14:22:26;5.72;;;3.10;;
17886;SDS011;9069;52.044;7.472;2023-08-31T14:24:54;3.53;;;2.80;;
17886;SDS011;9069;52.044;7.472;2023-08-31T14:27:21;5.32;;;2.53;;
17886;SDS011;9069;52.044;7.472;2023-08-31T14:29:49;7.05;;;2.80;;
17886;SDS011;9069;52.044;7.472;2023-08-31T14:32:16;3.28;;;2.60;;
17886;SDS011;9069;52.044;7.472;2023-08-31T14:34:43;4.03;;;2.22;;
17886;SDS011;9069;52.044;7.472;2023-08-31T14:37:09;3.67;;;2.88;;
17886;SDS011;9069;52.044;7.472;2023-08-31T14:39:36;3.05;;;2.17;;
17886;SDS011;9069;52.044;7.472;2023-08-31T14:42:03;4.40;;;2.30;;
17886;SDS011;9069;52.044;7.472;2023-08-31T14:44:30;3.90;;;2.42;;
17886;SDS011;9069;52.044;7.472;2023-08-31T14:46:57;3.83;;;2.38;;
17886;SDS011;9069;52.044;7.472;2023-08-31T14:49:23;3.67;;;2.25;;
17886;SDS011;9069;52.044;7.472;2023-08-31T14:51:51;3.25;;;1.88;;
17886;SDS011;9069;52.044;7.472;2023-08-31T14:54:18;2.08;;;1.88;;
17886;SDS011;9069;52.044;7.472;2023-08-31T14:56:45;2.20;;;1.75;;
17886;SDS011;9069;52.044;7.472;2023-08-31T14:59:12;4.05;;;2.22;;
17886;SDS011;9069;52.044;7.472;2023-08-31T15:01:38;4.15;;;2.33;;
17886;SDS011;9069;52.044;7.472;2023-08-31T15:04:05;4.38;;;2.45;;
17886;SDS011;9069;52.044;7.472;2023-08-31T15:06:32;2.50;;;2.30;;
17886;SDS011;9069;52.044;7.472;2023-08-31T15:08:59;3.78;;;2.20;;
17886;SDS011;9069;52.044;7.472;2023-08-31T15:11:30;5.15;;;2.90;;
17886;SDS011;9069;52.044;7.472;2023-08-31T15:13:57;3.22;;;2.22;;
17886;SDS011;9069;52.044;7.472;2023-08-31T15:16:25;5.35;;;2.40;;
17886;SDS011;9069;52.044;7.472;2023-08-31T15:18:51;2.88;;;1.80;;
17886;SDS011;9069;52.044;7.472;2023-08-31T15:21:18;5.95;;;1.50;;
17886;SDS011;9069;52.044;7.472;2023-08-31T15:23:45;2.72;;;1.00;;